»·PEaware :: N786SC L52-L88

N786SC :: L52-L88

FLIGHT INFORMATION

Flight Status: Arrived
Operator: Privately registered:
United States
More flights under this callsign
Pilot: Jereme M. (20698)
Aircraft: CESSNA 172 SKYHAWK
(C172)
More flights by this aircraft type
Origin: L52 Oceano Co
United States
Destination: L88 New Cuyama
United States
More flights between these airports :: More routes between these airports
Route: POZOE
File this flight plan on PilotEdge
Remarks:
Altitude:
(Current/Filed)
5,500ft
Speed:
(Current/Filed)
110kts
Departed: 06-Oct-18 04:27 PM
Arrived: 06-Oct-18 05:04 PM
Distance/Time
Traveled:
47nm/0:37
Distance/Time
To Go:
Arrived

Flight Plot

Page will automatically refresh every two minutes.


Map Options




Map Legend


Flown Route
Filed Route
Departure Airport
Arrival Airport
Navaid (VOR, NDB)
Fix

Horizontal Profiles

Position Reports

Time Latitude Longitude Heading Altitude Ground
Speed
06-Oct-18 16:08 35.103301 -120.624566 208 18ft 0kts
06-Oct-18 16:09 35.103301 -120.624566 208 18ft 0kts
06-Oct-18 16:10 35.103301 -120.624566 208 18ft 0kts
06-Oct-18 16:11 35.103301 -120.624566 208 18ft 0kts
06-Oct-18 16:12 35.103301 -120.624566 208 18ft 0kts
06-Oct-18 16:13 35.103301 -120.624566 208 18ft 0kts
06-Oct-18 16:14 35.103301 -120.624566 208 18ft 0kts
06-Oct-18 16:15 35.103045 -120.624239 115 18ft 10kts
06-Oct-18 16:16 35.100418 -120.621201 123 18ft 25kts
06-Oct-18 16:17 35.099436 -120.619549 87 18ft 0kts
06-Oct-18 16:18 35.099436 -120.619549 87 18ft 0kts
06-Oct-18 16:19 35.099436 -120.619549 87 18ft 0kts
06-Oct-18 16:20 35.099436 -120.619549 87 18ft 0kts
06-Oct-18 16:21 35.099436 -120.619549 87 18ft 0kts
06-Oct-18 16:22 35.099436 -120.619549 87 18ft 0kts
06-Oct-18 16:23 35.099436 -120.619549 87 18ft 0kts
06-Oct-18 16:24 35.099436 -120.619549 87 18ft 0kts
06-Oct-18 16:25 35.099436 -120.619549 87 18ft 0kts
06-Oct-18 16:26 35.099436 -120.619548 86 18ft 0kts
06-Oct-18 16:27 35.099509 -120.619465 23 18ft 0kts
06-Oct-18 16:28 35.100237 -120.620011 303 18ft 34kts
06-Oct-18 16:29 35.109839 -120.642613 261 651ft 80kts
06-Oct-18 16:30 35.091678 -120.649645 125 1410ft 85kts
06-Oct-18 16:31 35.077525 -120.625445 121 2127ft 89kts
06-Oct-18 16:32 35.079309 -120.597188 74 2863ft 85kts
06-Oct-18 16:33 35.085680 -120.571110 66 3620ft 78kts
06-Oct-18 16:34 35.094605 -120.545397 66 4239ft 86kts
06-Oct-18 16:35 35.104121 -120.517868 66 4840ft 89kts
06-Oct-18 16:36 35.113677 -120.490175 66 5438ft 88kts
06-Oct-18 16:37 35.123049 -120.462940 66 6035ft 86kts
06-Oct-18 16:38 35.131273 -120.435805 71 6604ft 86kts
06-Oct-18 16:39 35.138264 -120.407190 74 7103ft 90kts
06-Oct-18 16:40 35.144072 -120.376860 77 7495ft 101kts
06-Oct-18 16:41 35.149661 -120.340709 81 7499ft 110kts
06-Oct-18 16:42 35.154066 -120.304342 81 7499ft 109kts
06-Oct-18 16:43 35.158353 -120.268764 81 7500ft 111kts
06-Oct-18 16:44 35.161140 -120.231511 109 7494ft 111kts
06-Oct-18 16:45 35.148614 -120.196778 114 7494ft 111kts
06-Oct-18 16:46 35.135897 -120.162281 114 7494ft 111kts
06-Oct-18 16:47 35.123215 -120.127927 114 7494ft 111kts
06-Oct-18 16:48 35.110479 -120.093475 114 7475ft 112kts
06-Oct-18 16:49 35.097741 -120.059133 114 6982ft 113kts
06-Oct-18 16:50 35.084802 -120.024291 114 6481ft 112kts
06-Oct-18 16:51 35.071898 -119.989630 114 5981ft 112kts
06-Oct-18 16:52 35.059033 -119.955115 114 5481ft 111kts
06-Oct-18 16:53 35.046390 -119.921261 114 4979ft 107kts
06-Oct-18 16:54 35.034128 -119.888471 114 4479ft 105kts
06-Oct-18 16:55 35.022653 -119.857809 114 3973ft 93kts
06-Oct-18 16:56 35.012180 -119.829853 114 3470ft 88kts
06-Oct-18 16:57 35.003165 -119.805461 111 3336ft 78kts
06-Oct-18 16:58 34.994702 -119.778052 109 3381ft 99kts
06-Oct-18 16:59 34.985334 -119.746101 109 3386ft 109kts
06-Oct-18 17:00 34.974873 -119.710431 109 3387ft 113kts
06-Oct-18 17:01 34.964037 -119.673626 109 3388ft 117kts
06-Oct-18 17:02 34.952834 -119.635643 109 3389ft 120kts
06-Oct-18 17:03 34.936272 -119.607158 196 3455ft 115kts
06-Oct-18 17:04 34.927226 -119.641934 266 3200ft 94kts
06-Oct-18 17:05 34.932680 -119.668485 299 2546ft 75kts
06-Oct-18 17:06 34.940160 -119.686221 301 2176ft 38kts
06-Oct-18 17:07 34.942774 -119.691191 22 2158ft 3kts
06-Oct-18 17:08 34.942710 -119.690768 20 2161ft 0kts
06-Oct-18 17:09 34.942710 -119.690768 20 2161ft 0kts
06-Oct-18 17:10 34.942710 -119.690768 20 2161ft 0kts
06-Oct-18 17:11 34.942710 -119.690768 20 2161ft 0kts
06-Oct-18 17:12 34.942710 -119.690768 20 2161ft 0kts
06-Oct-18 17:13 34.942710 -119.690768 20 2161ft 0kts
06-Oct-18 17:14 34.942710 -119.690768 20 2161ft 0kts
06-Oct-18 17:15 34.942710 -119.690768 20 2161ft 0kts
06-Oct-18 17:16 34.942710 -119.690768 20 2161ft 0kts
06-Oct-18 17:17 34.942710 -119.690768 20 2161ft 0kts
06-Oct-18 17:18 34.942710 -119.690768 20 2161ft 0kts
06-Oct-18 17:19 34.942710 -119.690768 20 2161ft 0kts
06-Oct-18 17:20 34.942710 -119.690768 20 2161ft 0kts

Navigation Log

Ident Type
Flight plan parsing failed, navigation log unavailable